sensor_id;sensor_type;location;lat;lon;timestamp;P1;durP1;ratioP1;P2;durP2;ratioP2
71343;SDS011;59146;43.850;25.948;2023-03-25T00:02:19;28.40;;;19.25;;
71343;SDS011;59146;43.850;25.948;2023-03-25T00:04:49;25.92;;;16.88;;
71343;SDS011;59146;43.850;25.948;2023-03-25T00:07:16;21.27;;;16.53;;
71343;SDS011;59146;43.850;25.948;2023-03-25T00:09:43;22.70;;;16.08;;
71343;SDS011;59146;43.850;25.948;2023-03-25T00:12:08;23.88;;;17.42;;
71343;SDS011;59146;43.850;25.948;2023-03-25T00:14:34;26.60;;;17.25;;
71343;SDS011;59146;43.850;25.948;2023-03-25T00:16:59;26.05;;;16.85;;
71343;SDS011;59146;43.850;25.948;2023-03-25T00:19:25;25.25;;;15.90;;
71343;SDS011;59146;43.850;25.948;2023-03-25T00:21:51;18.00;;;13.95;;
71343;SDS011;59146;43.850;25.948;2023-03-25T00:24:18;22.58;;;13.75;;
71343;SDS011;59146;43.850;25.948;2023-03-25T00:26:46;16.60;;;12.35;;
71343;SDS011;59146;43.850;25.948;2023-03-25T00:29:12;22.20;;;14.60;;
71343;SDS011;59146;43.850;25.948;2023-03-25T00:31:39;23.17;;;14.88;;
71343;SDS011;59146;43.850;25.948;2023-03-25T00:34:05;19.45;;;15.10;;
71343;SDS011;59146;43.850;25.948;2023-03-25T00:36:30;18.55;;;14.52;;
71343;SDS011;59146;43.850;25.948;2023-03-25T00:38:56;26.38;;;16.60;;
71343;SDS011;59146;43.850;25.948;2023-03-25T00:41:22;23.17;;;16.02;;
71343;SDS011;59146;43.850;25.948;2023-03-25T00:43:56;23.60;;;14.60;;
71343;SDS011;59146;43.850;25.948;2023-03-25T00:46:23;22.60;;;14.88;;
71343;SDS011;59146;43.850;25.948;2023-03-25T00:48:50;25.60;;;18.58;;
71343;SDS011;59146;43.850;25.948;2023-03-25T00:51:16;32.42;;;19.30;;
71343;SDS011;59146;43.850;25.948;2023-03-25T00:53:45;27.60;;;20.92;;
71343;SDS011;59146;43.850;25.948;2023-03-25T00:56:12;30.45;;;21.73;;
71343;SDS011;59146;43.850;25.948;2023-03-25T00:58:38;30.00;;;20.30;;
71343;SDS011;59146;43.850;25.948;2023-03-25T01:01:08;28.30;;;19.48;;
71343;SDS011;59146;43.850;25.948;2023-03-25T01:03:34;31.63;;;21.38;;
71343;SDS011;59146;43.850;25.948;2023-03-25T01:06:01;26.75;;;19.95;;
71343;SDS011;59146;43.850;25.948;2023-03-25T01:08:27;25.98;;;18.73;;
71343;SDS011;59146;43.850;25.948;2023-03-25T01:10:53;20.63;;;15.43;;
71343;SDS011;59146;43.850;25.948;2023-03-25T01:13:20;20.75;;;15.02;;
71343;SDS011;59146;43.850;25.948;2023-03-25T01:15:46;21.77;;;14.57;;
71343;SDS011;59146;43.850;25.948;2023-03-25T01:18:12;19.95;;;14.57;;
71343;SDS011;59146;43.850;25.948;2023-03-25T01:20:38;27.63;;;16.50;;
71343;SDS011;59146;43.850;25.948;2023-03-25T01:23:04;21.75;;;16.08;;
71343;SDS011;59146;43.850;25.948;2023-03-25T01:25:30;23.60;;;16.15;;
71343;SDS011;59146;43.850;25.948;2023-03-25T01:27:55;22.33;;;16.13;;
71343;SDS011;59146;43.850;25.948;2023-03-25T01:30:21;21.15;;;14.75;;
71343;SDS011;59146;43.850;25.948;2023-03-25T01:32:46;27.20;;;16.42;;
71343;SDS011;59146;43.850;25.948;2023-03-25T01:35:12;20.30;;;15.07;;
71343;SDS011;59146;43.850;25.948;2023-03-25T01:37:37;25.45;;;15.93;;
71343;SDS011;59146;43.850;25.948;2023-03-25T01:40:04;24.45;;;16.30;;
71343;SDS011;59146;43.850;25.948;2023-03-25T01:42:32;23.58;;;16.65;;
71343;SDS011;59146;43.850;25.948;2023-03-25T01:45:12;24.85;;;16.88;;
71343;SDS011;59146;43.850;25.948;2023-03-25T01:47:47;22.80;;;17.27;;
71343;SDS011;59146;43.850;25.948;2023-03-25T01:50:16;22.60;;;16.70;;
71343;SDS011;59146;43.850;25.948;2023-03-25T01:52:44;24.67;;;17.63;;
71343;SDS011;59146;43.850;25.948;2023-03-25T01:55:13;24.45;;;18.25;;
71343;SDS011;59146;43.850;25.948;2023-03-25T01:57:42;28.63;;;17.83;;
71343;SDS011;59146;43.850;25.948;2023-03-25T02:00:11;32.35;;;19.48;;
71343;SDS011;59146;43.850;25.948;2023-03-25T02:02:39;25.70;;;16.83;;
71343;SDS011;59146;43.850;25.948;2023-03-25T02:05:08;26.70;;;17.42;;
71343;SDS011;59146;43.850;25.948;2023-03-25T02:07:39;24.70;;;17.30;;
71343;SDS011;59146;43.850;25.948;2023-03-25T02:10:06;20.55;;;16.08;;
71343;SDS011;59146;43.850;25.948;2023-03-25T02:12:35;19.77;;;15.35;;
71343;SDS011;59146;43.850;25.948;2023-03-25T02:15:01;28.10;;;17.23;;
71343;SDS011;59146;43.850;25.948;2023-03-25T02:20:30;23.33;;;16.20;;
71343;SDS011;59146;43.850;25.948;2023-03-25T02:28:58;20.95;;;16.60;;
71343;SDS011;59146;43.850;25.948;2023-03-25T02:40:05;31.80;;;22.35;;
71343;SDS011;59146;43.850;25.948;2023-03-25T02:45:25;30.58;;;23.52;;
71343;SDS011;59146;43.850;25.948;2023-03-25T02:50:28;29.42;;;20.90;;
71343;SDS011;59146;43.850;25.948;2023-03-25T02:52:59;32.85;;;22.52;;
71343;SDS011;59146;43.850;25.948;2023-03-25T02:55:28;30.77;;;22.05;;
71343;SDS011;59146;43.850;25.948;2023-03-25T02:57:56;26.75;;;21.30;;
71343;SDS011;59146;43.850;25.948;2023-03-25T03:00:24;32.08;;;22.35;;
71343;SDS011;59146;43.850;25.948;2023-03-25T03:03:02;31.17;;;22.15;;
71343;SDS011;59146;43.850;25.948;2023-03-25T03:24:39;22.40;;;15.95;;
71343;SDS011;59146;43.850;25.948;2023-03-25T03:30:34;18.73;;;14.15;;
71343;SDS011;59146;43.850;25.948;2023-03-25T03:35:57;20.23;;;13.95;;
71343;SDS011;59146;43.850;25.948;2023-03-25T03:38:28;21.38;;;14.50;;
71343;SDS011;59146;43.850;25.948;2023-03-25T03:40:59;24.65;;;14.65;;
71343;SDS011;59146;43.850;25.948;2023-03-25T03:44:11;20.00;;;14.45;;
71343;SDS011;59146;43.850;25.948;2023-03-25T03:46:30;18.70;;;13.35;;
71343;SDS011;59146;43.850;25.948;2023-03-25T03:51:31;21.05;;;13.88;;
71343;SDS011;59146;43.850;25.948;2023-03-25T03:54:16;20.20;;;14.38;;
71343;SDS011;59146;43.850;25.948;2023-03-25T03:56:48;21.70;;;15.18;;
71343;SDS011;59146;43.850;25.948;2023-03-25T04:02:07;18.88;;;13.30;;
71343;SDS011;59146;43.850;25.948;2023-03-25T04:04:38;17.88;;;12.95;;
71343;SDS011;59146;43.850;25.948;2023-03-25T04:07:20;17.17;;;12.68;;
71343;SDS011;59146;43.850;25.948;2023-03-25T04:12:31;18.52;;;13.68;;
71343;SDS011;59146;43.850;25.948;2023-03-25T04:15:02;17.90;;;13.32;;
71343;SDS011;59146;43.850;25.948;2023-03-25T04:17:29;17.98;;;13.07;;
71343;SDS011;59146;43.850;25.948;2023-03-25T04:19:56;16.65;;;13.18;;
71343;SDS011;59146;43.850;25.948;2023-03-25T04:22:23;17.45;;;13.05;;
71343;SDS011;59146;43.850;25.948;2023-03-25T04:24:48;22.85;;;13.55;;
71343;SDS011;59146;43.850;25.948;2023-03-25T04:27:16;21.85;;;13.20;;
71343;SDS011;59146;43.850;25.948;2023-03-25T04:29:42;13.65;;;11.43;;
71343;SDS011;59146;43.850;25.948;2023-03-25T04:32:09;17.55;;;12.38;;
71343;SDS011;59146;43.850;25.948;2023-03-25T04:34:36;22.17;;;11.68;;
71343;SDS011;59146;43.850;25.948;2023-03-25T04:37:02;14.20;;;10.52;;
71343;SDS011;59146;43.850;25.948;2023-03-25T04:39:28;17.83;;;10.93;;
71343;SDS011;59146;43.850;25.948;2023-03-25T04:41:56;15.68;;;11.10;;
71343;SDS011;59146;43.850;25.948;2023-03-25T04:44:26;14.68;;;10.38;;
71343;SDS011;59146;43.850;25.948;2023-03-25T04:46:52;14.05;;;10.68;;
71343;SDS011;59146;43.850;25.948;2023-03-25T04:49:20;14.02;;;10.10;;
71343;SDS011;59146;43.850;25.948;2023-03-25T04:51:50;13.23;;;9.68;;
71343;SDS011;59146;43.850;25.948;2023-03-25T04:54:17;18.60;;;9.65;;
71343;SDS011;59146;43.850;25.948;2023-03-25T04:56:43;16.10;;;10.02;;
71343;SDS011;59146;43.850;25.948;2023-03-25T04:59:11;17.52;;;11.20;;
71343;SDS011;59146;43.850;25.948;2023-03-25T05:01:37;19.85;;;11.23;;
71343;SDS011;59146;43.850;25.948;2023-03-25T05:04:06;16.85;;;10.32;;
71343;SDS011;59146;43.850;25.948;2023-03-25T05:06:33;14.80;;;10.07;;
71343;SDS011;59146;43.850;25.948;2023-03-25T05:09:00;17.80;;;9.88;;
71343;SDS011;59146;43.850;25.948;2023-03-25T05:11:28;16.83;;;9.88;;
71343;SDS011;59146;43.850;25.948;2023-03-25T05:13:55;13.05;;;9.15;;
71343;SDS011;59146;43.850;25.948;2023-03-25T05:16:20;13.95;;;9.32;;
71343;SDS011;59146;43.850;25.948;2023-03-25T05:18:46;11.60;;;8.95;;
71343;SDS011;59146;43.850;25.948;2023-03-25T05:21:12;13.02;;;9.07;;
71343;SDS011;59146;43.850;25.948;2023-03-25T05:23:38;14.20;;;8.73;;
71343;SDS011;59146;43.850;25.948;2023-03-25T05:26:05;11.25;;;8.75;;
71343;SDS011;59146;43.850;25.948;2023-03-25T05:28:32;12.68;;;9.43;;
71343;SDS011;59146;43.850;25.948;2023-03-25T05:30:58;9.23;;;8.23;;
71343;SDS011;59146;43.850;25.948;2023-03-25T05:33:23;17.42;;;8.43;;
71343;SDS011;59146;43.850;25.948;2023-03-25T05:35:49;13.50;;;9.57;;
71343;SDS011;59146;43.850;25.948;2023-03-25T05:38:14;13.90;;;9.13;;
71343;SDS011;59146;43.850;25.948;2023-03-25T05:40:46;17.10;;;9.15;;
71343;SDS011;59146;43.850;25.948;2023-03-25T05:43:13;16.25;;;9.80;;
71343;SDS011;59146;43.850;25.948;2023-03-25T05:45:42;15.05;;;10.10;;
71343;SDS011;59146;43.850;25.948;2023-03-25T05:48:09;23.05;;;9.93;;
71343;SDS011;59146;43.850;25.948;2023-03-25T05:50:35;19.30;;;10.60;;
71343;SDS011;59146;43.850;25.948;2023-03-25T05:53:01;26.08;;;9.85;;
71343;SDS011;59146;43.850;25.948;2023-03-25T05:55:28;18.75;;;10.20;;
71343;SDS011;59146;43.850;25.948;2023-03-25T05:57:53;23.00;;;10.35;;
71343;SDS011;59146;43.850;25.948;2023-03-25T06:00:20;16.67;;;11.52;;
71343;SDS011;59146;43.850;25.948;2023-03-25T06:02:46;21.58;;;11.07;;
71343;SDS011;59146;43.850;25.948;2023-03-25T06:05:13;27.98;;;12.13;;
71343;SDS011;59146;43.850;25.948;2023-03-25T06:07:43;21.80;;;12.10;;
71343;SDS011;59146;43.850;25.948;2023-03-25T06:10:12;22.90;;;12.02;;
71343;SDS011;59146;43.850;25.948;2023-03-25T06:12:41;21.95;;;12.45;;
71343;SDS011;59146;43.850;25.948;2023-03-25T06:15:08;23.75;;;13.90;;
71343;SDS011;59146;43.850;25.948;2023-03-25T06:17:35;21.98;;;12.57;;
71343;SDS011;59146;43.850;25.948;2023-03-25T06:20:03;25.05;;;13.50;;
71343;SDS011;59146;43.850;25.948;2023-03-25T06:22:40;29.40;;;13.65;;
71343;SDS011;59146;43.850;25.948;2023-03-25T06:25:13;27.45;;;12.65;;
71343;SDS011;59146;43.850;25.948;2023-03-25T06:27:45;19.63;;;11.77;;
71343;SDS011;59146;43.850;25.948;2023-03-25T06:30:14;19.48;;;11.05;;
71343;SDS011;59146;43.850;25.948;2023-03-25T06:32:41;19.35;;;11.13;;
71343;SDS011;59146;43.850;25.948;2023-03-25T06:35:08;18.17;;;12.25;;
71343;SDS011;59146;43.850;25.948;2023-03-25T06:37:34;17.90;;;10.63;;
71343;SDS011;59146;43.850;25.948;2023-03-25T06:40:00;12.57;;;8.90;;
71343;SDS011;59146;43.850;25.948;2023-03-25T06:42:26;12.00;;;9.32;;
71343;SDS011;59146;43.850;25.948;2023-03-25T06:44:53;14.55;;;9.05;;
71343;SDS011;59146;43.850;25.948;2023-03-25T06:47:19;15.93;;;9.30;;
71343;SDS011;59146;43.850;25.948;2023-03-25T06:49:45;14.15;;;8.57;;
71343;SDS011;59146;43.850;25.948;2023-03-25T06:52:10;13.77;;;9.27;;
71343;SDS011;59146;43.850;25.948;2023-03-25T06:54:36;18.13;;;9.10;;
71343;SDS011;59146;43.850;25.948;2023-03-25T06:57:02;21.67;;;10.15;;
71343;SDS011;59146;43.850;25.948;2023-03-25T06:59:28;20.05;;;10.00;;
71343;SDS011;59146;43.850;25.948;2023-03-25T07:01:53;20.95;;;9.80;;
71343;SDS011;59146;43.850;25.948;2023-03-25T07:04:19;26.30;;;9.65;;
71343;SDS011;59146;43.850;25.948;2023-03-25T07:06:44;22.17;;;10.25;;
71343;SDS011;59146;43.850;25.948;2023-03-25T07:09:10;19.10;;;10.48;;
71343;SDS011;59146;43.850;25.948;2023-03-25T07:11:35;11.30;;;8.77;;
71343;SDS011;59146;43.850;25.948;2023-03-25T07:14:01;14.60;;;8.77;;
71343;SDS011;59146;43.850;25.948;2023-03-25T07:16:26;18.20;;;8.65;;
71343;SDS011;59146;43.850;25.948;2023-03-25T07:18:52;14.32;;;8.90;;
71343;SDS011;59146;43.850;25.948;2023-03-25T07:21:19;14.65;;;8.00;;
71343;SDS011;59146;43.850;25.948;2023-03-25T07:23:45;12.30;;;8.57;;
71343;SDS011;59146;43.850;25.948;2023-03-25T07:26:10;12.38;;;7.78;;
71343;SDS011;59146;43.850;25.948;2023-03-25T07:28:37;12.57;;;7.30;;
71343;SDS011;59146;43.850;25.948;2023-03-25T07:31:06;9.88;;;7.25;;
71343;SDS011;59146;43.850;25.948;2023-03-25T07:33:33;13.63;;;7.80;;
71343;SDS011;59146;43.850;25.948;2023-03-25T07:35:58;16.00;;;7.30;;
71343;SDS011;59146;43.850;25.948;2023-03-25T07:38:24;9.05;;;7.05;;
71343;SDS011;59146;43.850;25.948;2023-03-25T07:40:49;13.73;;;7.15;;
71343;SDS011;59146;43.850;25.948;2023-03-25T07:43:15;13.40;;;7.50;;
71343;SDS011;59146;43.850;25.948;2023-03-25T07:45:40;11.07;;;7.70;;
71343;SDS011;59146;43.850;25.948;2023-03-25T07:48:06;13.23;;;7.15;;
71343;SDS011;59146;43.850;25.948;2023-03-25T07:50:37;19.02;;;9.52;;
71343;SDS011;59146;43.850;25.948;2023-03-25T07:53:03;11.85;;;7.82;;
71343;SDS011;59146;43.850;25.948;2023-03-25T07:55:28;10.93;;;7.82;;
71343;SDS011;59146;43.850;25.948;2023-03-25T07:57:54;17.88;;;9.82;;
71343;SDS011;59146;43.850;25.948;2023-03-25T08:00:20;12.25;;;7.38;;
71343;SDS011;59146;43.850;25.948;2023-03-25T08:02:46;12.60;;;8.13;;
71343;SDS011;59146;43.850;25.948;2023-03-25T08:05:11;11.35;;;7.32;;
71343;SDS011;59146;43.850;25.948;2023-03-25T08:07:40;13.25;;;6.97;;
71343;SDS011;59146;43.850;25.948;2023-03-25T08:10:05;11.27;;;7.22;;
71343;SDS011;59146;43.850;25.948;2023-03-25T08:12:31;11.77;;;6.45;;
71343;SDS011;59146;43.850;25.948;2023-03-25T08:14:57;15.15;;;7.93;;
71343;SDS011;59146;43.850;25.948;2023-03-25T08:17:23;12.13;;;8.07;;
71343;SDS011;59146;43.850;25.948;2023-03-25T08:19:49;11.32;;;7.72;;
71343;SDS011;59146;43.850;25.948;2023-03-25T08:22:15;13.63;;;7.80;;
71343;SDS011;59146;43.850;25.948;2023-03-25T08:24:40;13.50;;;8.75;;
71343;SDS011;59146;43.850;25.948;2023-03-25T08:27:05;11.50;;;8.07;;
71343;SDS011;59146;43.850;25.948;2023-03-25T08:29:31;14.02;;;8.50;;
71343;SDS011;59146;43.850;25.948;2023-03-25T08:31:58;18.08;;;8.68;;
71343;SDS011;59146;43.850;25.948;2023-03-25T08:34:24;20.58;;;8.73;;
71343;SDS011;59146;43.850;25.948;2023-03-25T08:36:51;17.83;;;10.05;;
71343;SDS011;59146;43.850;25.948;2023-03-25T08:39:16;24.02;;;9.52;;
71343;SDS011;59146;43.850;25.948;2023-03-25T08:41:43;15.55;;;9.02;;
71343;SDS011;59146;43.850;25.948;2023-03-25T08:44:09;18.10;;;8.20;;
71343;SDS011;59146;43.850;25.948;2023-03-25T08:46:35;20.23;;;8.82;;
71343;SDS011;59146;43.850;25.948;2023-03-25T08:49:02;15.38;;;7.97;;
71343;SDS011;59146;43.850;25.948;2023-03-25T08:51:28;10.27;;;7.10;;
71343;SDS011;59146;43.850;25.948;2023-03-25T08:53:54;20.35;;;8.88;;
71343;SDS011;59146;43.850;25.948;2023-03-25T08:56:20;14.07;;;8.02;;
71343;SDS011;59146;43.850;25.948;2023-03-25T08:58:45;14.15;;;8.23;;
71343;SDS011;59146;43.850;25.948;2023-03-25T09:01:11;12.48;;;8.52;;
71343;SDS011;59146;43.850;25.948;2023-03-25T09:03:37;13.80;;;8.27;;
71343;SDS011;59146;43.850;25.948;2023-03-25T09:06:06;15.88;;;8.05;;
71343;SDS011;59146;43.850;25.948;2023-03-25T09:08:32;15.35;;;7.82;;
71343;SDS011;59146;43.850;25.948;2023-03-25T09:10:59;11.15;;;7.60;;
71343;SDS011;59146;43.850;25.948;2023-03-25T09:13:24;13.95;;;6.65;;
71343;SDS011;59146;43.850;25.948;2023-03-25T09:15:50;16.30;;;7.18;;
71343;SDS011;59146;43.850;25.948;2023-03-25T09:18:16;16.85;;;7.82;;
71343;SDS011;59146;43.850;25.948;2023-03-25T09:20:41;14.82;;;8.43;;
71343;SDS011;59146;43.850;25.948;2023-03-25T09:23:07;11.57;;;7.13;;
71343;SDS011;59146;43.850;25.948;2023-03-25T09:25:34;11.05;;;6.70;;
71343;SDS011;59146;43.850;25.948;2023-03-25T09:28:01;16.05;;;8.15;;
71343;SDS011;59146;43.850;25.948;2023-03-25T09:30:26;11.35;;;7.45;;
71343;SDS011;59146;43.850;25.948;2023-03-25T09:32:51;16.65;;;7.63;;
71343;SDS011;59146;43.850;25.948;2023-03-25T09:35:17;13.15;;;7.63;;
71343;SDS011;59146;43.850;25.948;2023-03-25T09:37:42;9.73;;;7.15;;
71343;SDS011;59146;43.850;25.948;2023-03-25T09:40:09;14.13;;;6.68;;
71343;SDS011;59146;43.850;25.948;2023-03-25T09:45:42;10.43;;;6.97;;
71343;SDS011;59146;43.850;25.948;2023-03-25T09:56:19;7.43;;;5.22;;
71343;SDS011;59146;43.850;25.948;2023-03-25T09:58:48;7.75;;;5.97;;
71343;SDS011;59146;43.850;25.948;2023-03-25T10:09:49;13.77;;;5.55;;
71343;SDS011;59146;43.850;25.948;2023-03-25T10:26:14;10.20;;;6.13;;
71343;SDS011;59146;43.850;25.948;2023-03-25T10:28:52;8.32;;;6.20;;
71343;SDS011;59146;43.850;25.948;2023-03-25T10:31:23;15.15;;;6.70;;
71343;SDS011;59146;43.850;25.948;2023-03-25T10:33:56;13.98;;;6.85;;
71343;SDS011;59146;43.850;25.948;2023-03-25T10:36:45;11.63;;;6.38;;
71343;SDS011;59146;43.850;25.948;2023-03-25T10:39:25;10.40;;;6.32;;
71343;SDS011;59146;43.850;25.948;2023-03-25T10:41:59;9.15;;;6.50;;
71343;SDS011;59146;43.850;25.948;2023-03-25T10:44:28;9.57;;;6.50;;
71343;SDS011;59146;43.850;25.948;2023-03-25T10:47:03;16.17;;;7.13;;
71343;SDS011;59146;43.850;25.948;2023-03-25T10:49:32;11.35;;;7.47;;
71343;SDS011;59146;43.850;25.948;2023-03-25T10:51:58;20.08;;;8.57;;
71343;SDS011;59146;43.850;25.948;2023-03-25T10:54:32;10.88;;;7.53;;
71343;SDS011;59146;43.850;25.948;2023-03-25T10:57:02;10.25;;;6.72;;
71343;SDS011;59146;43.850;25.948;2023-03-25T11:00:14;10.00;;;7.55;;
71343;SDS011;59146;43.850;25.948;2023-03-25T11:02:28;13.50;;;8.43;;
71343;SDS011;59146;43.850;25.948;2023-03-25T11:04:56;10.20;;;6.78;;
71343;SDS011;59146;43.850;25.948;2023-03-25T11:07:26;8.48;;;6.88;;
71343;SDS011;59146;43.850;25.948;2023-03-25T11:12:48;16.05;;;7.70;;
71343;SDS011;59146;43.850;25.948;2023-03-25T11:15:25;8.98;;;6.78;;
71343;SDS011;59146;43.850;25.948;2023-03-25T11:20:39;9.27;;;7.43;;
71343;SDS011;59146;43.850;25.948;2023-03-25T11:28:54;8.32;;;6.60;;
71343;SDS011;59146;43.850;25.948;2023-03-25T11:31:25;14.35;;;6.93;;
71343;SDS011;59146;43.850;25.948;2023-03-25T11:36:35;12.65;;;8.13;;
71343;SDS011;59146;43.850;25.948;2023-03-25T11:39:48;13.10;;;7.85;;
71343;SDS011;59146;43.850;25.948;2023-03-25T11:41:54;12.10;;;8.25;;
71343;SDS011;59146;43.850;25.948;2023-03-25T11:44:22;17.05;;;8.45;;
71343;SDS011;59146;43.850;25.948;2023-03-25T11:46:53;18.40;;;8.88;;
71343;SDS011;59146;43.850;25.948;2023-03-25T11:49:22;10.40;;;6.80;;
71343;SDS011;59146;43.850;25.948;2023-03-25T11:51:55;9.02;;;6.85;;
71343;SDS011;59146;43.850;25.948;2023-03-25T11:54:23;15.55;;;7.05;;
71343;SDS011;59146;43.850;25.948;2023-03-25T11:56:51;10.45;;;7.18;;
71343;SDS011;59146;43.850;25.948;2023-03-25T11:59:25;10.82;;;9.18;;
71343;SDS011;59146;43.850;25.948;2023-03-25T12:02:00;18.85;;;10.65;;
71343;SDS011;59146;43.850;25.948;2023-03-25T12:04:27;12.00;;;6.70;;
71343;SDS011;59146;43.850;25.948;2023-03-25T12:06:54;8.35;;;6.80;;
71343;SDS011;59146;43.850;25.948;2023-03-25T12:09:22;7.07;;;5.97;;
71343;SDS011;59146;43.850;25.948;2023-03-25T12:25:37;10.48;;;5.25;;
71343;SDS011;59146;43.850;25.948;2023-03-25T12:41:27;10.23;;;5.60;;
71343;SDS011;59146;43.850;25.948;2023-03-25T12:46:38;6.85;;;5.85;;
71343;SDS011;59146;43.850;25.948;2023-03-25T12:54:32;9.45;;;4.80;;
71343;SDS011;59146;43.850;25.948;2023-03-25T12:57:27;5.97;;;4.60;;
71343;SDS011;59146;43.850;25.948;2023-03-25T13:08:37;6.40;;;4.47;;
71343;SDS011;59146;43.850;25.948;2023-03-25T13:11:25;9.07;;;4.97;;
71343;SDS011;59146;43.850;25.948;2023-03-25T13:14:16;7.13;;;4.68;;
71343;SDS011;59146;43.850;25.948;2023-03-25T13:16:47;9.50;;;5.10;;
71343;SDS011;59146;43.850;25.948;2023-03-25T13:19:27;13.10;;;5.45;;
71343;SDS011;59146;43.850;25.948;2023-03-25T13:21:57;13.98;;;5.57;;
71343;SDS011;59146;43.850;25.948;2023-03-25T13:24:37;12.85;;;5.28;;
71343;SDS011;59146;43.850;25.948;2023-03-25T13:27:09;8.13;;;5.57;;
71343;SDS011;59146;43.850;25.948;2023-03-25T13:29:47;8.93;;;5.35;;
71343;SDS011;59146;43.850;25.948;2023-03-25T13:32:23;12.02;;;5.18;;
71343;SDS011;59146;43.850;25.948;2023-03-25T13:34:55;12.13;;;5.10;;
71343;SDS011;59146;43.850;25.948;2023-03-25T13:37:32;12.82;;;4.88;;
71343;SDS011;59146;43.850;25.948;2023-03-25T13:42:58;9.10;;;5.57;;
71343;SDS011;59146;43.850;25.948;2023-03-25T13:45:26;14.93;;;5.70;;
71343;SDS011;59146;43.850;25.948;2023-03-25T13:50:56;9.38;;;5.78;;
71343;SDS011;59146;43.850;25.948;2023-03-25T13:58:36;10.60;;;6.10;;
71343;SDS011;59146;43.850;25.948;2023-03-25T14:12:32;14.40;;;5.30;;
71343;SDS011;59146;43.850;25.948;2023-03-25T14:17:58;11.63;;;6.03;;
71343;SDS011;59146;43.850;25.948;2023-03-25T14:20:34;12.38;;;6.25;;
71343;SDS011;59146;43.850;25.948;2023-03-25T14:23:03;9.25;;;6.47;;
71343;SDS011;59146;43.850;25.948;2023-03-25T14:28:05;7.03;;;6.03;;
71343;SDS011;59146;43.850;25.948;2023-03-25T14:30:32;10.68;;;6.13;;
71343;SDS011;59146;43.850;25.948;2023-03-25T14:32:58;9.27;;;7.10;;
71343;SDS011;59146;43.850;25.948;2023-03-25T14:38:11;9.13;;;5.90;;
71343;SDS011;59146;43.850;25.948;2023-03-25T14:40:47;8.52;;;5.45;;
71343;SDS011;59146;43.850;25.948;2023-03-25T14:43:23;10.05;;;5.90;;
71343;SDS011;59146;43.850;25.948;2023-03-25T14:48:44;7.63;;;5.65;;
71343;SDS011;59146;43.850;25.948;2023-03-25T14:51:14;9.15;;;5.60;;
71343;SDS011;59146;43.850;25.948;2023-03-25T14:56:30;13.07;;;5.82;;
71343;SDS011;59146;43.850;25.948;2023-03-25T14:58:58;8.52;;;5.80;;
71343;SDS011;59146;43.850;25.948;2023-03-25T15:01:33;11.43;;;6.25;;
71343;SDS011;59146;43.850;25.948;2023-03-25T15:04:07;7.38;;;6.07;;
71343;SDS011;59146;43.850;25.948;2023-03-25T15:06:35;12.70;;;7.00;;
71343;SDS011;59146;43.850;25.948;2023-03-25T15:09:03;9.38;;;6.05;;
71343;SDS011;59146;43.850;25.948;2023-03-25T15:11:37;10.52;;;6.50;;
71343;SDS011;59146;43.850;25.948;2023-03-25T15:14:12;9.65;;;6.57;;
71343;SDS011;59146;43.850;25.948;2023-03-25T15:19:11;12.95;;;5.85;;
71343;SDS011;59146;43.850;25.948;2023-03-25T15:24:29;15.13;;;6.00;;
71343;SDS011;59146;43.850;25.948;2023-03-25T15:30:01;12.55;;;4.65;;
71343;SDS011;59146;43.850;25.948;2023-03-25T15:35:27;11.98;;;5.43;;
71343;SDS011;59146;43.850;25.948;2023-03-25T15:38:38;16.55;;;6.07;;
71343;SDS011;59146;43.850;25.948;2023-03-25T15:55:07;9.48;;;5.18;;
71343;SDS011;59146;43.850;25.948;2023-03-25T16:00:43;6.60;;;4.82;;
71343;SDS011;59146;43.850;25.948;2023-03-25T16:03:29;12.27;;;6.38;;
71343;SDS011;59146;43.850;25.948;2023-03-25T16:05:59;8.82;;;5.50;;
71343;SDS011;59146;43.850;25.948;2023-03-25T16:08:32;20.10;;;11.15;;
71343;SDS011;59146;43.850;25.948;2023-03-25T16:16:40;12.23;;;7.20;;
71343;SDS011;59146;43.850;25.948;2023-03-25T16:19:17;19.40;;;6.72;;
71343;SDS011;59146;43.850;25.948;2023-03-25T16:21:49;11.05;;;6.53;;
71343;SDS011;59146;43.850;25.948;2023-03-25T16:24:17;14.73;;;7.90;;
71343;SDS011;59146;43.850;25.948;2023-03-25T16:26:47;11.77;;;7.47;;
71343;SDS011;59146;43.850;25.948;2023-03-25T16:31:50;9.20;;;6.25;;
71343;SDS011;59146;43.850;25.948;2023-03-25T16:34:27;13.18;;;6.00;;
71343;SDS011;59146;43.850;25.948;2023-03-25T16:36:57;14.23;;;6.68;;
71343;SDS011;59146;43.850;25.948;2023-03-25T16:39:23;11.32;;;6.10;;
71343;SDS011;59146;43.850;25.948;2023-03-25T16:41:51;6.10;;;5.05;;
71343;SDS011;59146;43.850;25.948;2023-03-25T16:44:24;11.60;;;6.40;;
71343;SDS011;59146;43.850;25.948;2023-03-25T16:46:50;8.75;;;6.65;;
71343;SDS011;59146;43.850;25.948;2023-03-25T16:49:51;10.40;;;6.78;;
71343;SDS011;59146;43.850;25.948;2023-03-25T16:52:12;11.93;;;6.30;;
71343;SDS011;59146;43.850;25.948;2023-03-25T16:57:31;14.30;;;6.82;;
71343;SDS011;59146;43.850;25.948;2023-03-25T17:00:18;7.85;;;5.93;;
71343;SDS011;59146;43.850;25.948;2023-03-25T17:02:46;9.23;;;6.93;;
71343;SDS011;59146;43.850;25.948;2023-03-25T17:05:15;10.68;;;6.50;;
71343;SDS011;59146;43.850;25.948;2023-03-25T17:07:41;13.10;;;6.57;;
71343;SDS011;59146;43.850;25.948;2023-03-25T17:12:42;11.63;;;6.32;;
71343;SDS011;59146;43.850;25.948;2023-03-25T17:15:10;11.90;;;6.65;;
71343;SDS011;59146;43.850;25.948;2023-03-25T17:17:43;13.07;;;7.97;;
71343;SDS011;59146;43.850;25.948;2023-03-25T17:20:24;10.25;;;7.03;;
71343;SDS011;59146;43.850;25.948;2023-03-25T17:22:58;12.48;;;6.65;;
71343;SDS011;59146;43.850;25.948;2023-03-25T17:29:04;13.65;;;7.20;;
71343;SDS011;59146;43.850;25.948;2023-03-25T17:33:57;14.57;;;7.28;;
71343;SDS011;59146;43.850;25.948;2023-03-25T17:36:24;18.88;;;8.48;;
71343;SDS011;59146;43.850;25.948;2023-03-25T17:38:50;10.88;;;8.27;;
71343;SDS011;59146;43.850;25.948;2023-03-25T17:41:20;14.15;;;7.93;;
71343;SDS011;59146;43.850;25.948;2023-03-25T17:43:46;10.52;;;7.18;;
71343;SDS011;59146;43.850;25.948;2023-03-25T17:46:21;15.85;;;7.78;;
71343;SDS011;59146;43.850;25.948;2023-03-25T17:48:49;15.05;;;6.93;;
71343;SDS011;59146;43.850;25.948;2023-03-25T17:51:17;8.13;;;6.28;;
71343;SDS011;59146;43.850;25.948;2023-03-25T17:53:44;10.02;;;5.78;;
71343;SDS011;59146;43.850;25.948;2023-03-25T17:56:10;10.13;;;5.95;;
71343;SDS011;59146;43.850;25.948;2023-03-25T17:58:37;8.38;;;5.88;;
71343;SDS011;59146;43.850;25.948;2023-03-25T18:01:03;11.45;;;6.40;;
71343;SDS011;59146;43.850;25.948;2023-03-25T18:03:30;7.72;;;5.32;;
71343;SDS011;59146;43.850;25.948;2023-03-25T18:05:56;8.40;;;6.30;;
71343;SDS011;59146;43.850;25.948;2023-03-25T18:08:25;12.38;;;5.63;;
71343;SDS011;59146;43.850;25.948;2023-03-25T18:10:52;7.75;;;5.88;;
71343;SDS011;59146;43.850;25.948;2023-03-25T18:13:19;7.43;;;5.78;;
71343;SDS011;59146;43.850;25.948;2023-03-25T18:15:47;8.43;;;5.15;;
71343;SDS011;59146;43.850;25.948;2023-03-25T18:18:21;9.43;;;5.85;;
71343;SDS011;59146;43.850;25.948;2023-03-25T18:20:49;13.52;;;5.78;;
71343;SDS011;59146;43.850;25.948;2023-03-25T18:23:15;13.43;;;5.65;;